sensor_id;sensor_type;location;lat;lon;timestamp;temperature;humidity
49777;DHT22;35673;51.482;7.436;2023-07-20T08:08:43;20.10;99.90
49777;DHT22;35673;51.482;7.436;2023-07-20T08:11:09;20.40;99.90
49777;DHT22;35673;51.482;7.436;2023-07-20T08:13:34;20.80;98.80
49777;DHT22;35673;51.482;7.436;2023-07-20T08:16:00;20.90;98.30
49777;DHT22;35673;51.482;7.436;2023-07-20T08:18:27;20.90;96.90
49777;DHT22;35673;51.482;7.436;2023-07-20T08:20:53;20.60;96.60
49777;DHT22;35673;51.482;7.436;2023-07-20T08:23:19;20.60;95.50
49777;DHT22;35673;51.482;7.436;2023-07-20T08:25:45;20.90;95.00
49777;DHT22;35673;51.482;7.436;2023-07-20T08:28:11;21.00;95.00
49777;DHT22;35673;51.482;7.436;2023-07-20T08:30:43;20.80;94.50
49777;DHT22;35673;51.482;7.436;2023-07-20T08:33:09;20.60;94.80
49777;DHT22;35673;51.482;7.436;2023-07-20T08:35:35;20.50;95.60
49777;DHT22;35673;51.482;7.436;2023-07-20T08:38:01;20.30;96.00
49777;DHT22;35673;51.482;7.436;2023-07-20T08:40:27;20.20;96.30
49777;DHT22;35673;51.482;7.436;2023-07-20T08:42:53;20.00;96.20
49777;DHT22;35673;51.482;7.436;2023-07-20T08:45:20;20.20;96.40
49777;DHT22;35673;51.482;7.436;2023-07-20T08:47:47;20.00;96.20
49777;DHT22;35673;51.482;7.436;2023-07-20T08:50:14;19.70;97.20
49777;DHT22;35673;51.482;7.436;2023-07-20T08:52:40;19.60;97.70
49777;DHT22;35673;51.482;7.436;2023-07-20T08:55:05;19.50;96.60
49777;DHT22;35673;51.482;7.436;2023-07-20T08:57:32;19.50;96.50
49777;DHT22;35673;51.482;7.436;2023-07-20T08:59:58;20.00;96.80
49777;DHT22;35673;51.482;7.436;2023-07-20T09:02:25;20.40;96.30
49777;DHT22;35673;51.482;7.436;2023-07-20T09:04:52;20.80;94.80
49777;DHT22;35673;51.482;7.436;2023-07-20T09:07:17;21.40;93.50
49777;DHT22;35673;51.482;7.436;2023-07-20T09:09:45;21.40;92.30
49777;DHT22;35673;51.482;7.436;2023-07-20T09:12:14;21.90;91.40
49777;DHT22;35673;51.482;7.436;2023-07-20T09:14:44;22.00;91.10
49777;DHT22;35673;51.482;7.436;2023-07-20T09:17:13;22.00;90.40
49777;DHT22;35673;51.482;7.436;2023-07-20T09:19:45;22.00;89.80
49777;DHT22;35673;51.482;7.436;2023-07-20T09:22:10;21.70;86.70
49777;DHT22;35673;51.482;7.436;2023-07-20T09:24:36;21.20;87.80
49777;DHT22;35673;51.482;7.436;2023-07-20T09:27:01;21.30;89.30
49777;DHT22;35673;51.482;7.436;2023-07-20T09:29:29;21.10;90.00
49777;DHT22;35673;51.482;7.436;2023-07-20T09:32:04;21.00;90.60
49777;DHT22;35673;51.482;7.436;2023-07-20T09:34:30;21.00;90.40
49777;DHT22;35673;51.482;7.436;2023-07-20T09:36:57;21.00;90.20
49777;DHT22;35673;51.482;7.436;2023-07-20T09:39:23;20.80;90.30
49777;DHT22;35673;51.482;7.436;2023-07-20T09:41:49;20.60;90.20
49777;DHT22;35673;51.482;7.436;2023-07-20T09:44:15;20.60;89.80
49777;DHT22;35673;51.482;7.436;2023-07-20T09:46:41;20.70;87.70
49777;DHT22;35673;51.482;7.436;2023-07-20T09:49:08;20.60;86.80
49777;DHT22;35673;51.482;7.436;2023-07-20T09:51:34;20.60;86.00
49777;DHT22;35673;51.482;7.436;2023-07-20T09:53:59;20.70;85.50
49777;DHT22;35673;51.482;7.436;2023-07-20T09:56:26;21.00;86.30
49777;DHT22;35673;51.482;7.436;2023-07-20T09:58:52;21.10;85.80
49777;DHT22;35673;51.482;7.436;2023-07-20T10:01:18;21.30;86.30
49777;DHT22;35673;51.482;7.436;2023-07-20T10:03:45;21.40;86.50
49777;DHT22;35673;51.482;7.436;2023-07-20T10:06:13;21.60;87.00
49777;DHT22;35673;51.482;7.436;2023-07-20T10:08:40;21.60;86.20
49777;DHT22;35673;51.482;7.436;2023-07-20T10:11:06;21.60;86.00
49777;DHT22;35673;51.482;7.436;2023-07-20T10:13:32;21.80;86.10
49777;DHT22;35673;51.482;7.436;2023-07-20T10:16:03;21.80;85.00
49777;DHT22;35673;51.482;7.436;2023-07-20T10:18:35;21.80;84.20
49777;DHT22;35673;51.482;7.436;2023-07-20T10:21:03;21.50;83.00
49777;DHT22;35673;51.482;7.436;2023-07-20T10:23:30;21.40;83.30
49777;DHT22;35673;51.482;7.436;2023-07-20T10:25:56;21.40;83.80
49777;DHT22;35673;51.482;7.436;2023-07-20T10:28:22;21.30;85.10
49777;DHT22;35673;51.482;7.436;2023-07-20T10:30:48;21.00;86.00
49777;DHT22;35673;51.482;7.436;2023-07-20T10:33:14;20.90;86.00
49777;DHT22;35673;51.482;7.436;2023-07-20T10:35:56;21.00;87.10
49777;DHT22;35673;51.482;7.436;2023-07-20T10:38:41;21.10;86.00
49777;DHT22;35673;51.482;7.436;2023-07-20T10:41:19;21.60;85.50
49777;DHT22;35673;51.482;7.436;2023-07-20T10:43:45;21.60;84.00
49777;DHT22;35673;51.482;7.436;2023-07-20T10:46:11;21.70;82.00
49777;DHT22;35673;51.482;7.436;2023-07-20T10:48:58;21.90;81.90
49777;DHT22;35673;51.482;7.436;2023-07-20T10:51:23;21.80;80.80
49777;DHT22;35673;51.482;7.436;2023-07-20T10:53:49;21.80;81.90
49777;DHT22;35673;51.482;7.436;2023-07-20T10:56:20;21.40;81.20
49777;DHT22;35673;51.482;7.436;2023-07-20T10:58:46;21.40;82.00
49777;DHT22;35673;51.482;7.436;2023-07-20T11:01:18;21.40;82.00
49777;DHT22;35673;51.482;7.436;2023-07-20T11:03:43;21.60;81.10
49777;DHT22;35673;51.482;7.436;2023-07-20T11:08:57;21.60;78.10
49777;DHT22;35673;51.482;7.436;2023-07-20T11:11:29;21.80;79.00
49777;DHT22;35673;51.482;7.436;2023-07-20T11:13:55;21.80;79.00
49777;DHT22;35673;51.482;7.436;2023-07-20T11:19:17;21.70;80.60
49777;DHT22;35673;51.482;7.436;2023-07-20T11:21:44;21.40;80.20
49777;DHT22;35673;51.482;7.436;2023-07-20T11:24:10;21.30;80.80
49777;DHT22;35673;51.482;7.436;2023-07-20T11:26:46;21.30;81.20
49777;DHT22;35673;51.482;7.436;2023-07-20T11:29:12;21.50;81.70
49777;DHT22;35673;51.482;7.436;2023-07-20T11:31:38;21.70;81.50
49777;DHT22;35673;51.482;7.436;2023-07-20T11:34:04;21.90;81.40
49777;DHT22;35673;51.482;7.436;2023-07-20T11:36:30;22.10;80.20
49777;DHT22;35673;51.482;7.436;2023-07-20T11:38:56;21.80;80.00
49777;DHT22;35673;51.482;7.436;2023-07-20T11:41:22;22.00;79.90
49777;DHT22;35673;51.482;7.436;2023-07-20T11:43:47;22.20;78.20
49777;DHT22;35673;51.482;7.436;2023-07-20T11:46:13;22.30;75.70
49777;DHT22;35673;51.482;7.436;2023-07-20T11:48:39;22.50;75.80
49777;DHT22;35673;51.482;7.436;2023-07-20T11:51:05;22.50;76.50
49777;DHT22;35673;51.482;7.436;2023-07-20T11:53:31;22.60;74.40
49777;DHT22;35673;51.482;7.436;2023-07-20T11:55:58;22.70;75.80
49777;DHT22;35673;51.482;7.436;2023-07-20T11:58:24;23.10;75.60
49777;DHT22;35673;51.482;7.436;2023-07-20T12:00:50;23.20;76.10
49777;DHT22;35673;51.482;7.436;2023-07-20T12:03:15;23.20;75.80
49777;DHT22;35673;51.482;7.436;2023-07-20T12:05:41;23.00;73.30
49777;DHT22;35673;51.482;7.436;2023-07-20T12:08:07;23.00;73.70
49777;DHT22;35673;51.482;7.436;2023-07-20T12:10:32;23.00;73.60
49777;DHT22;35673;51.482;7.436;2023-07-20T12:13:01;22.90;74.30
49777;DHT22;35673;51.482;7.436;2023-07-20T12:15:28;23.10;74.70
49777;DHT22;35673;51.482;7.436;2023-07-20T12:17:58;22.90;73.70
49777;DHT22;35673;51.482;7.436;2023-07-20T12:20:31;22.80;74.60
49777;DHT22;35673;51.482;7.436;2023-07-20T12:22:59;23.10;73.50
49777;DHT22;35673;51.482;7.436;2023-07-20T12:25:32;23.30;74.40
49777;DHT22;35673;51.482;7.436;2023-07-20T12:28:00;23.60;73.40
49777;DHT22;35673;51.482;7.436;2023-07-20T12:30:26;23.50;74.30
49777;DHT22;35673;51.482;7.436;2023-07-20T12:32:51;23.40;75.00
49777;DHT22;35673;51.482;7.436;2023-07-20T12:35:17;23.10;74.40
49777;DHT22;35673;51.482;7.436;2023-07-20T12:37:42;23.50;74.40
49777;DHT22;35673;51.482;7.436;2023-07-20T12:40:08;23.70;72.10
49777;DHT22;35673;51.482;7.436;2023-07-20T12:42:36;23.70;71.90
49777;DHT22;35673;51.482;7.436;2023-07-20T12:45:01;23.90;74.10
49777;DHT22;35673;51.482;7.436;2023-07-20T12:47:27;23.90;73.30
49777;DHT22;35673;51.482;7.436;2023-07-20T12:49:52;23.60;73.30
49777;DHT22;35673;51.482;7.436;2023-07-20T12:52:18;23.60;73.60
49777;DHT22;35673;51.482;7.436;2023-07-20T12:54:43;23.70;73.40
49777;DHT22;35673;51.482;7.436;2023-07-20T12:57:09;23.70;73.50
49777;DHT22;35673;51.482;7.436;2023-07-20T12:59:34;24.00;74.00
49777;DHT22;35673;51.482;7.436;2023-07-20T13:02:00;24.00;74.20
49777;DHT22;35673;51.482;7.436;2023-07-20T13:04:25;24.50;59.70
49777;DHT22;35673;51.482;7.436;2023-07-20T13:06:51;24.90;58.30
49777;DHT22;35673;51.482;7.436;2023-07-20T13:09:16;24.90;58.10
49777;DHT22;35673;51.482;7.436;2023-07-20T13:11:42;24.80;58.40
49777;DHT22;35673;51.482;7.436;2023-07-20T13:14:08;25.70;59.10
49777;DHT22;35673;51.482;7.436;2023-07-20T13:19:00;29.60;53.40
49777;DHT22;35673;51.482;7.436;2023-07-20T13:21:26;30.90;51.60
49777;DHT22;35673;51.482;7.436;2023-07-20T13:23:51;31.70;50.40
49777;DHT22;35673;51.482;7.436;2023-07-20T13:26:17;31.20;50.20
49777;DHT22;35673;51.482;7.436;2023-07-20T13:28:42;30.40;50.30
49777;DHT22;35673;51.482;7.436;2023-07-20T13:31:08;31.70;49.60
49777;DHT22;35673;51.482;7.436;2023-07-20T13:33:35;32.00;47.80
49777;DHT22;35673;51.482;7.436;2023-07-20T13:36:01;30.50;49.10
49777;DHT22;35673;51.482;7.436;2023-07-20T13:38:27;29.40;50.90
49777;DHT22;35673;51.482;7.436;2023-07-20T13:40:52;28.60;51.60
49777;DHT22;35673;51.482;7.436;2023-07-20T13:43:18;27.90;52.10
49777;DHT22;35673;51.482;7.436;2023-07-20T13:45:44;27.20;52.90
49777;DHT22;35673;51.482;7.436;2023-07-20T13:48:09;27.00;57.00
49777;DHT22;35673;51.482;7.436;2023-07-20T13:50:35;26.50;59.70
49777;DHT22;35673;51.482;7.436;2023-07-20T13:53:00;26.30;56.60
49777;DHT22;35673;51.482;7.436;2023-07-20T13:55:28;26.00;55.20
49777;DHT22;35673;51.482;7.436;2023-07-20T13:57:53;25.80;56.00
49777;DHT22;35673;51.482;7.436;2023-07-20T14:00:19;25.70;55.90
49777;DHT22;35673;51.482;7.436;2023-07-20T14:02:44;25.80;55.30
49777;DHT22;35673;51.482;7.436;2023-07-20T14:05:10;25.70;56.80
49777;DHT22;35673;51.482;7.436;2023-07-20T14:07:35;25.20;57.30
49777;DHT22;35673;51.482;7.436;2023-07-20T14:10:02;25.20;57.20
49777;DHT22;35673;51.482;7.436;2023-07-20T14:12:28;25.30;56.20
49777;DHT22;35673;51.482;7.436;2023-07-20T14:14:54;25.50;57.60
49777;DHT22;35673;51.482;7.436;2023-07-20T14:17:20;25.90;56.70
49777;DHT22;35673;51.482;7.436;2023-07-20T14:19:46;26.50;55.50
49777;DHT22;35673;51.482;7.436;2023-07-20T14:22:11;27.30;54.70
49777;DHT22;35673;51.482;7.436;2023-07-20T14:24:37;27.70;53.70
49777;DHT22;35673;51.482;7.436;2023-07-20T14:27:02;27.50;53.50
49777;DHT22;35673;51.482;7.436;2023-07-20T14:29:28;27.10;53.40
49777;DHT22;35673;51.482;7.436;2023-07-20T14:31:57;26.50;53.70
49777;DHT22;35673;51.482;7.436;2023-07-20T14:34:22;26.40;53.90
49777;DHT22;35673;51.482;7.436;2023-07-20T14:36:48;26.80;54.20
49777;DHT22;35673;51.482;7.436;2023-07-20T14:39:15;27.80;53.20
49777;DHT22;35673;51.482;7.436;2023-07-20T14:41:40;28.40;53.00
49777;DHT22;35673;51.482;7.436;2023-07-20T14:44:06;28.60;53.10
49777;DHT22;35673;51.482;7.436;2023-07-20T14:46:32;28.10;53.50
49777;DHT22;35673;51.482;7.436;2023-07-20T14:48:57;27.40;53.20
49777;DHT22;35673;51.482;7.436;2023-07-20T14:51:23;26.60;58.30
49777;DHT22;35673;51.482;7.436;2023-07-20T14:53:49;25.80;55.70
49777;DHT22;35673;51.482;7.436;2023-07-20T14:56:14;25.60;54.90
49777;DHT22;35673;51.482;7.436;2023-07-20T14:58:40;25.80;55.40
49777;DHT22;35673;51.482;7.436;2023-07-20T15:01:05;28.50;54.00
49777;DHT22;35673;51.482;7.436;2023-07-20T15:03:31;30.70;55.80
49777;DHT22;35673;51.482;7.436;2023-07-20T15:05:57;31.40;52.20
49777;DHT22;35673;51.482;7.436;2023-07-20T15:08:22;32.90;49.60
49777;DHT22;35673;51.482;7.436;2023-07-20T15:10:48;33.10;47.80
49777;DHT22;35673;51.482;7.436;2023-07-20T15:13:14;32.60;47.90
49777;DHT22;35673;51.482;7.436;2023-07-20T15:15:40;31.50;48.20
49777;DHT22;35673;51.482;7.436;2023-07-20T15:18:06;30.40;48.50
49777;DHT22;35673;51.482;7.436;2023-07-20T15:20:32;29.60;51.30
49777;DHT22;35673;51.482;7.436;2023-07-20T15:22:58;29.70;50.70
49777;DHT22;35673;51.482;7.436;2023-07-20T15:25:24;31.00;49.60
49777;DHT22;35673;51.482;7.436;2023-07-20T15:27:49;30.30;49.70
49777;DHT22;35673;51.482;7.436;2023-07-20T15:30:15;29.70;50.70
49777;DHT22;35673;51.482;7.436;2023-07-20T15:32:41;29.00;50.80
49777;DHT22;35673;51.482;7.436;2023-07-20T15:35:08;29.40;51.30
49777;DHT22;35673;51.482;7.436;2023-07-20T15:37:33;29.40;51.10
49777;DHT22;35673;51.482;7.436;2023-07-20T15:39:59;30.80;50.80
49777;DHT22;35673;51.482;7.436;2023-07-20T15:42:29;34.00;48.00
49777;DHT22;35673;51.482;7.436;2023-07-20T15:44:54;36.50;45.70
49777;DHT22;35673;51.482;7.436;2023-07-20T15:47:20;36.40;43.80
49777;DHT22;35673;51.482;7.436;2023-07-20T15:49:45;37.80;45.80
49777;DHT22;35673;51.482;7.436;2023-07-20T15:52:11;35.60;43.50
49777;DHT22;35673;51.482;7.436;2023-07-20T15:54:38;33.10;47.50
49777;DHT22;35673;51.482;7.436;2023-07-20T15:57:04;30.80;49.60
49777;DHT22;35673;51.482;7.436;2023-07-20T15:59:30;30.50;49.30
49777;DHT22;35673;51.482;7.436;2023-07-20T16:01:56;28.90;54.80
49777;DHT22;35673;51.482;7.436;2023-07-20T16:04:21;27.90;53.50
49777;DHT22;35673;51.482;7.436;2023-07-20T16:06:47;26.90;53.60
49777;DHT22;35673;51.482;7.436;2023-07-20T16:09:12;26.40;53.50
49777;DHT22;35673;51.482;7.436;2023-07-20T16:11:38;26.10;54.70
49777;DHT22;35673;51.482;7.436;2023-07-20T16:14:05;25.90;55.30
49777;DHT22;35673;51.482;7.436;2023-07-20T16:16:31;25.90;55.10
49777;DHT22;35673;51.482;7.436;2023-07-20T16:18:57;26.10;54.70
49777;DHT22;35673;51.482;7.436;2023-07-20T16:21:22;26.20;54.00
49777;DHT22;35673;51.482;7.436;2023-07-20T16:23:49;26.20;53.90
49777;DHT22;35673;51.482;7.436;2023-07-20T16:26:14;26.30;53.70
49777;DHT22;35673;51.482;7.436;2023-07-20T16:28:40;27.20;53.40
49777;DHT22;35673;51.482;7.436;2023-07-20T16:31:10;28.90;52.00
49777;DHT22;35673;51.482;7.436;2023-07-20T16:33:36;29.50;49.60
49777;DHT22;35673;51.482;7.436;2023-07-20T16:36:01;28.80;50.10
49777;DHT22;35673;51.482;7.436;2023-07-20T16:38:27;28.00;50.20
49777;DHT22;35673;51.482;7.436;2023-07-20T16:40:56;27.10;51.00
49777;DHT22;35673;51.482;7.436;2023-07-20T16:43:22;26.60;52.00
49777;DHT22;35673;51.482;7.436;2023-07-20T16:45:47;26.30;52.20
49777;DHT22;35673;51.482;7.436;2023-07-20T16:48:13;26.10;52.70
49777;DHT22;35673;51.482;7.436;2023-07-20T16:50:38;26.00;53.50
49777;DHT22;35673;51.482;7.436;2023-07-20T16:53:04;25.90;53.20
49777;DHT22;35673;51.482;7.436;2023-07-20T16:55:29;25.80;53.10
49777;DHT22;35673;51.482;7.436;2023-07-20T16:57:55;25.90;52.90
49777;DHT22;35673;51.482;7.436;2023-07-20T17:00:21;25.70;53.00
49777;DHT22;35673;51.482;7.436;2023-07-20T17:02:47;25.70;53.10
49777;DHT22;35673;51.482;7.436;2023-07-20T17:05:12;25.70;53.20
49777;DHT22;35673;51.482;7.436;2023-07-20T17:07:38;25.70;53.90
49777;DHT22;35673;51.482;7.436;2023-07-20T17:10:05;25.70;57.20
49777;DHT22;35673;51.482;7.436;2023-07-20T17:12:32;25.70;58.50
49777;DHT22;35673;51.482;7.436;2023-07-20T17:14:58;25.60;55.40
49777;DHT22;35673;51.482;7.436;2023-07-20T17:17:23;25.40;55.90
49777;DHT22;35673;51.482;7.436;2023-07-20T17:19:49;25.40;53.40
49777;DHT22;35673;51.482;7.436;2023-07-20T17:22:14;25.50;53.80
49777;DHT22;35673;51.482;7.436;2023-07-20T17:24:40;25.40;54.50
49777;DHT22;35673;51.482;7.436;2023-07-20T17:27:06;25.40;56.50
49777;DHT22;35673;51.482;7.436;2023-07-20T17:29:31;25.20;56.00
49777;DHT22;35673;51.482;7.436;2023-07-20T17:31:58;25.00;53.90
49777;DHT22;35673;51.482;7.436;2023-07-20T17:34:23;25.00;54.50
49777;DHT22;35673;51.482;7.436;2023-07-20T17:36:49;24.90;55.70
49777;DHT22;35673;51.482;7.436;2023-07-20T17:39:15;24.80;54.80
49777;DHT22;35673;51.482;7.436;2023-07-20T17:41:41;24.60;54.10
49777;DHT22;35673;51.482;7.436;2023-07-20T17:44:06;24.60;54.60
49777;DHT22;35673;51.482;7.436;2023-07-20T17:46:32;24.70;54.90
49777;DHT22;35673;51.482;7.436;2023-07-20T17:48:58;24.50;54.50
49777;DHT22;35673;51.482;7.436;2023-07-20T17:51:23;24.50;58.50
49777;DHT22;35673;51.482;7.436;2023-07-20T17:53:49;24.60;63.60
49777;DHT22;35673;51.482;7.436;2023-07-20T17:56:14;24.60;63.00
49777;DHT22;35673;51.482;7.436;2023-07-20T17:58:40;24.50;63.50
49777;DHT22;35673;51.482;7.436;2023-07-20T18:01:06;24.60;62.60
49777;DHT22;35673;51.482;7.436;2023-07-20T18:03:31;24.50;63.70
49777;DHT22;35673;51.482;7.436;2023-07-20T18:06:02;24.20;63.80
49777;DHT22;35673;51.482;7.436;2023-07-20T18:08:28;24.40;65.70
49777;DHT22;35673;51.482;7.436;2023-07-20T18:10:53;24.40;61.30
49777;DHT22;35673;51.482;7.436;2023-07-20T18:13:19;24.30;68.00
49777;DHT22;35673;51.482;7.436;2023-07-20T18:15:44;24.10;69.00
49777;DHT22;35673;51.482;7.436;2023-07-20T18:18:10;24.00;56.00
49777;DHT22;35673;51.482;7.436;2023-07-20T18:20:35;23.90;56.30
49777;DHT22;35673;51.482;7.436;2023-07-20T18:23:01;23.90;68.00
49777;DHT22;35673;51.482;7.436;2023-07-20T18:25:28;23.90;68.60
49777;DHT22;35673;51.482;7.436;2023-07-20T18:27:54;23.90;56.60
49777;DHT22;35673;51.482;7.436;2023-07-20T18:30:20;23.70;57.20
49777;DHT22;35673;51.482;7.436;2023-07-20T18:32:45;23.60;56.70
49777;DHT22;35673;51.482;7.436;2023-07-20T18:35:11;23.50;57.20
49777;DHT22;35673;51.482;7.436;2023-07-20T18:37:37;23.40;57.50
49777;DHT22;35673;51.482;7.436;2023-07-20T18:40:03;23.30;57.70
49777;DHT22;35673;51.482;7.436;2023-07-20T18:42:29;23.20;57.90
49777;DHT22;35673;51.482;7.436;2023-07-20T18:44:55;23.20;57.90
49777;DHT22;35673;51.482;7.436;2023-07-20T18:47:20;23.10;58.20
49777;DHT22;35673;51.482;7.436;2023-07-20T18:49:46;23.00;58.30
49777;DHT22;35673;51.482;7.436;2023-07-20T18:52:11;22.90;58.60
49777;DHT22;35673;51.482;7.436;2023-07-20T18:54:37;22.80;59.00
49777;DHT22;35673;51.482;7.436;2023-07-20T18:57:03;22.70;59.00
49777;DHT22;35673;51.482;7.436;2023-07-20T18:59:29;22.70;59.40
49777;DHT22;35673;51.482;7.436;2023-07-20T19:01:55;22.50;59.60
49777;DHT22;35673;51.482;7.436;2023-07-20T19:04:20;22.60;59.70
49777;DHT22;35673;51.482;7.436;2023-07-20T19:06:47;22.50;60.00
49777;DHT22;35673;51.482;7.436;2023-07-20T19:09:12;22.40;59.90
49777;DHT22;35673;51.482;7.436;2023-07-20T19:11:38;22.50;60.20
49777;DHT22;35673;51.482;7.436;2023-07-20T19:14:04;22.40;60.20
49777;DHT22;35673;51.482;7.436;2023-07-20T19:16:29;22.40;60.40
49777;DHT22;35673;51.482;7.436;2023-07-20T19:18:55;22.40;60.40
49777;DHT22;35673;51.482;7.436;2023-07-20T19:21:20;22.40;60.40
49777;DHT22;35673;51.482;7.436;2023-07-20T19:23:46;22.20;60.40
49777;DHT22;35673;51.482;7.436;2023-07-20T19:26:11;22.30;60.60
49777;DHT22;35673;51.482;7.436;2023-07-20T19:28:37;22.20;60.50
49777;DHT22;35673;51.482;7.436;2023-07-20T19:31:03;22.20;60.50
49777;DHT22;35673;51.482;7.436;2023-07-20T19:33:29;22.20;60.70
49777;DHT22;35673;51.482;7.436;2023-07-20T19:35:55;22.10;60.70
49777;DHT22;35673;51.482;7.436;2023-07-20T19:38:21;22.20;61.00
49777;DHT22;35673;51.482;7.436;2023-07-20T19:40:47;22.20;61.30
49777;DHT22;35673;51.482;7.436;2023-07-20T19:45:40;22.10;76.80
49777;DHT22;35673;51.482;7.436;2023-07-20T19:48:06;22.10;74.50
49777;DHT22;35673;51.482;7.436;2023-07-20T19:50:32;22.20;74.30
49777;DHT22;35673;51.482;7.436;2023-07-20T19:52:58;21.90;71.00
49777;DHT22;35673;51.482;7.436;2023-07-20T19:55:24;22.10;70.60
49777;DHT22;35673;51.482;7.436;2023-07-20T19:57:50;21.90;71.50
49777;DHT22;35673;51.482;7.436;2023-07-20T20:00:15;22.10;72.30
49777;DHT22;35673;51.482;7.436;2023-07-20T20:02:43;22.10;72.60
49777;DHT22;35673;51.482;7.436;2023-07-20T20:05:08;21.90;73.60
49777;DHT22;35673;51.482;7.436;2023-07-20T20:07:34;21.90;76.10
49777;DHT22;35673;51.482;7.436;2023-07-20T20:10:00;21.90;63.50
49777;DHT22;35673;51.482;7.436;2023-07-20T20:12:26;21.90;63.60
49777;DHT22;35673;51.482;7.436;2023-07-20T20:14:52;21.80;64.00
49777;DHT22;35673;51.482;7.436;2023-07-20T20:17:17;21.60;64.10
49777;DHT22;35673;51.482;7.436;2023-07-20T20:19:43;21.70;64.50
49777;DHT22;35673;51.482;7.436;2023-07-20T20:22:08;21.70;64.90
49777;DHT22;35673;51.482;7.436;2023-07-20T20:24:34;21.60;65.00
49777;DHT22;35673;51.482;7.436;2023-07-20T20:27:01;21.60;64.50
49777;DHT22;35673;51.482;7.436;2023-07-20T20:29:29;21.60;64.30
49777;DHT22;35673;51.482;7.436;2023-07-20T20:31:55;21.70;64.40
49777;DHT22;35673;51.482;7.436;2023-07-20T20:34:21;21.60;64.30
49777;DHT22;35673;51.482;7.436;2023-07-20T20:36:47;21.60;64.70
49777;DHT22;35673;51.482;7.436;2023-07-20T20:39:12;21.50;64.80
49777;DHT22;35673;51.482;7.436;2023-07-20T20:41:38;21.60;65.30
49777;DHT22;35673;51.482;7.436;2023-07-20T20:44:10;21.50;70.60
49777;DHT22;35673;51.482;7.436;2023-07-20T20:46:48;21.40;80.10
49777;DHT22;35673;51.482;7.436;2023-07-20T20:49:14;21.20;80.20
49777;DHT22;35673;51.482;7.436;2023-07-20T20:51:40;21.40;81.20
49777;DHT22;35673;51.482;7.436;2023-07-20T20:54:08;21.40;79.20
49777;DHT22;35673;51.482;7.436;2023-07-20T20:56:34;21.40;82.30
49777;DHT22;35673;51.482;7.436;2023-07-20T20:59:00;21.30;82.50
49777;DHT22;35673;51.482;7.436;2023-07-20T21:01:25;21.40;82.60
49777;DHT22;35673;51.482;7.436;2023-07-20T21:03:51;21.00;82.80
49777;DHT22;35673;51.482;7.436;2023-07-20T21:06:17;21.30;83.40
49777;DHT22;35673;51.482;7.436;2023-07-20T21:08:42;21.20;83.60
49777;DHT22;35673;51.482;7.436;2023-07-20T21:11:08;21.00;84.50
49777;DHT22;35673;51.482;7.436;2023-07-20T21:13:33;20.90;84.70
49777;DHT22;35673;51.482;7.436;2023-07-20T21:15:59;21.10;85.00
49777;DHT22;35673;51.482;7.436;2023-07-20T21:18:25;20.80;85.40
49777;DHT22;35673;51.482;7.436;2023-07-20T21:20:50;21.10;84.60
49777;DHT22;35673;51.482;7.436;2023-07-20T21:37:54;20.10;86.80
49777;DHT22;35673;51.482;7.436;2023-07-20T21:40:20;20.00;82.00
49777;DHT22;35673;51.482;7.436;2023-07-20T21:42:45;20.10;81.30
49777;DHT22;35673;51.482;7.436;2023-07-20T21:45:11;20.20;82.00
49777;DHT22;35673;51.482;7.436;2023-07-20T21:47:37;20.10;82.00
49777;DHT22;35673;51.482;7.436;2023-07-20T21:50:03;20.20;82.80
49777;DHT22;35673;51.482;7.436;2023-07-20T21:52:29;20.00;81.30
49777;DHT22;35673;51.482;7.436;2023-07-20T21:54:54;19.90;81.70
49777;DHT22;35673;51.482;7.436;2023-07-20T21:57:20;19.80;83.50
49777;DHT22;35673;51.482;7.436;2023-07-20T21:59:45;19.70;84.70
49777;DHT22;35673;51.482;7.436;2023-07-20T22:02:11;19.80;85.30
49777;DHT22;35673;51.482;7.436;2023-07-20T22:04:37;19.40;85.80
49777;DHT22;35673;51.482;7.436;2023-07-20T23:49:43;18.50;99.90
49777;DHT22;35673;51.482;7.436;2023-07-20T23:52:10;18.60;99.90
